Time;durP1;ratioP1;P1;durP2;ratioP2;P2;SDS_P1;SDS_P2;PMS_P1;PMS_P2;Temp;Humidity;BMP_temperature;BMP_pressure;BME280_temperature;BME280_humidity;BME280_pressure;Samples;Min_cycle;Max_cycle;Signal;HPM_P1;HPM_P2
2023/06/07 00:01:58;;;;;;;20.33;5.93;;;11.60;99.90;;;;;;5105886;28;20040;-81
2023/06/07 00:04:24;;;;;;;13.55;5.32;;;11.00;99.90;;;;;;5112941;28;20055;-80
2023/06/07 00:07:00;;;;;;;17.23;5.32;;;11.10;99.90;;;;;;5084481;28;20052;-80
2023/06/07 00:09:32;;;;;;;20.42;5.72;;;11.10;99.90;;;;;;5110401;28;20044;-80
2023/06/07 00:12:01;;;;;;;19.83;5.47;;;11.00;99.90;;;;;;5130240;27;20040;-81
2023/06/07 00:14:27;;;;;;;20.77;5.90;;;11.10;99.90;;;;;;5119198;28;20428;-81
2023/06/07 00:16:54;;;;;;;29.98;6.90;;;11.10;99.90;;;;;;5131457;27;20077;-80
2023/06/07 00:19:21;;;;;;;22.60;5.75;;;11.00;99.90;;;;;;5099674;28;20148;-81
2023/06/07 00:21:50;;;;;;;13.27;5.40;;;11.10;99.90;;;;;;5117370;27;20431;-83
2023/06/07 00:24:20;;;;;;;27.23;6.07;;;11.00;99.90;;;;;;5121795;28;20048;-81
2023/06/07 00:26:45;;;;;;;23.33;6.88;;;11.60;99.90;;;;;;5117780;28;20040;-81
2023/06/07 00:29:11;;;;;;;18.33;5.93;;;10.90;99.90;;;;;;5108513;28;20050;-80
2023/06/07 00:31:37;;;;;;;16.77;5.53;;;10.80;99.90;;;;;;5117648;28;20433;-82
2023/06/07 00:34:03;;;;;;;19.13;5.68;;;10.90;99.90;;;;;;5097905;28;20083;-81
2023/06/07 00:36:29;;;;;;;22.92;6.43;;;10.80;99.90;;;;;;5118629;28;20043;-81
2023/06/07 00:38:55;;;;;;;25.63;5.82;;;10.90;99.90;;;;;;5118809;28;20113;-81
2023/06/07 00:41:21;;;;;;;19.08;5.25;;;10.80;99.90;;;;;;5118707;28;20042;-81
2023/06/07 00:43:47;;;;;;;19.08;5.88;;;10.80;99.90;;;;;;5122886;28;20079;-82
2023/06/07 00:46:26;;;;;;;18.08;5.40;;;10.90;99.90;;;;;;5101579;28;20054;-81
2023/06/07 00:48:52;;;;;;;;;;;10.90;99.90;;;;;;5105061;28;20058;-82
2023/06/07 00:51:18;;;;;;;18.65;5.72;;;10.80;99.90;;;;;;5113595;28;20300;-80
2023/06/07 00:53:47;;;;;;;18.85;5.88;;;10.80;99.90;;;;;;5105908;28;20055;-80
2023/06/07 00:56:15;;;;;;;18.13;4.93;;;10.80;99.90;;;;;;5095163;28;20040;-80
2023/06/07 00:58:45;;;;;;;19.17;5.40;;;10.80;99.90;;;;;;5095372;28;20120;-81
2023/06/07 01:01:11;;;;;;;14.43;4.90;;;10.70;99.90;;;;;;5096546;28;20301;-80
2023/06/07 01:03:37;;;;;;;15.68;5.03;;;10.70;99.90;;;;;;5096425;28;20043;-81
2023/06/07 01:06:06;;;;;;;15.65;4.85;;;10.60;99.90;;;;;;5097400;28;20568;-82
2023/06/07 01:08:35;;;;;;;21.77;6.13;;;10.70;99.90;;;;;;5099509;28;20461;-82
2023/06/07 01:11:02;;;;;;;26.85;5.97;;;11.30;99.90;;;;;;5112666;28;20047;-80
2023/06/07 01:13:30;;;;;;;15.85;5.78;;;10.60;99.90;;;;;;5109006;28;20404;-82
2023/06/07 01:15:59;;;;;;;20.85;5.88;;;10.60;99.90;;;;;;5101932;28;20036;-81
2023/06/07 01:18:26;;;;;;;12.73;4.55;;;10.60;99.90;;;;;;5077151;28;20786;-81
2023/06/07 01:20:57;;;;;;;25.40;6.13;;;10.60;99.90;;;;;;5113705;28;20076;-81
2023/06/07 01:23:31;;;;;;;26.23;5.03;;;10.70;99.90;;;;;;5122167;28;20044;-81
2023/06/07 01:25:58;;;;;;;20.85;5.25;;;10.60;99.90;;;;;;5119287;28;20047;-81
2023/06/07 01:28:25;;;;;;;23.90;5.32;;;10.60;99.90;;;;;;5121554;28;20043;-79
2023/06/07 01:30:53;;;;;;;19.83;4.97;;;10.60;99.90;;;;;;5121273;28;20039;-81
2023/06/07 01:33:20;;;;;;;18.88;5.30;;;10.70;99.90;;;;;;5089897;28;20048;-81
2023/06/07 01:35:48;;;;;;;22.77;5.78;;;10.80;99.90;;;;;;5095989;28;20747;-81
2023/06/07 01:38:15;;;;;;;18.02;4.85;;;10.90;99.90;;;;;;5118835;28;20065;-81
2023/06/07 01:40:43;;;;;;;28.98;5.82;;;10.80;99.90;;;;;;5119143;28;20051;-80
2023/06/07 01:43:09;;;;;;;13.52;4.60;;;10.80;99.90;;;;;;5087154;28;20047;-81
2023/06/07 01:45:38;;;;;;;20.00;4.85;;;10.80;99.90;;;;;;5118190;28;20102;-81
2023/06/07 01:48:05;;;;;;;15.43;4.65;;;10.70;99.90;;;;;;5117849;28;20119;-82
2023/06/07 01:50:31;;;;;;;17.98;4.95;;;10.80;99.90;;;;;;5113253;28;20083;-82
2023/06/07 01:52:56;;;;;;;21.02;5.60;;;11.10;99.90;;;;;;5108292;28;20523;-82
2023/06/07 01:55:24;;;;;;;16.88;4.60;;;10.80;99.90;;;;;;5117210;28;20115;-81
2023/06/07 01:58:01;;;;;;;14.23;4.60;;;11.20;99.90;;;;;;5107831;28;20079;-81
2023/06/07 02:00:57;;;;;;;25.05;5.55;;;10.80;99.90;;;;;;5086822;28;20037;-81
2023/06/07 02:03:31;;;;;;;12.10;4.28;;;10.70;99.90;;;;;;5111088;28;20040;-81
2023/06/07 02:06:01;;;;;;;18.02;5.82;;;10.70;99.90;;;;;;5112590;28;20047;-80
2023/06/07 02:08:34;;;;;;;18.52;4.95;;;10.70;99.90;;;;;;5130975;28;20114;-80
2023/06/07 02:11:03;;;;;;;19.50;5.60;;;10.70;99.90;;;;;;5092592;28;20048;-81
2023/06/07 02:13:35;;;;;;;17.92;5.88;;;10.70;99.90;;;;;;5114689;28;20042;-81
2023/06/07 02:16:04;;;;;;;22.08;5.38;;;10.80;99.90;;;;;;5097707;28;20035;-81
2023/06/07 02:18:36;;;;;;;16.83;5.43;;;10.80;99.90;;;;;;5121548;27;20050;-82
2023/06/07 02:21:03;;;;;;;15.45;4.50;;;10.80;99.90;;;;;;5111403;28;20054;-82
2023/06/07 02:23:28;;;;;;;22.95;5.70;;;10.90;99.90;;;;;;5116322;27;20043;-82
2023/06/07 02:25:57;;;;;;;25.95;5.43;;;10.90;99.90;;;;;;5111897;27;20044;-81
2023/06/07 02:28:23;;;;;;;17.55;4.95;;;10.90;99.90;;;;;;5110871;27;20040;-81
2023/06/07 02:30:48;;;;;;;27.05;5.47;;;10.90;99.90;;;;;;5107410;28;20048;-79
2023/06/07 02:33:14;;;;;;;16.30;5.10;;;10.90;99.90;;;;;;5112093;28;20035;-80
2023/06/07 02:35:45;;;;;;;17.52;4.82;;;11.00;99.90;;;;;;5098023;28;20397;-80
2023/06/07 02:38:11;;;;;;;14.98;4.53;;;11.00;99.90;;;;;;5083132;28;20035;-80
2023/06/07 02:40:37;;;;;;;17.55;5.32;;;11.00;99.90;;;;;;5124247;27;20366;-81
2023/06/07 02:43:02;;;;;;;16.83;3.88;;;11.00;99.90;;;;;;5123975;27;20047;-81
2023/06/07 02:45:28;;;;;;;17.02;4.15;;;11.10;99.90;;;;;;5114267;27;20036;-80
2023/06/07 02:48:00;;;;;;;19.88;5.47;;;11.10;99.90;;;;;;5097570;28;20066;-81
2023/06/07 02:50:26;;;;;;;17.73;4.85;;;11.10;99.90;;;;;;5091892;28;20048;-81
2023/06/07 02:52:52;;;;;;;17.48;4.90;;;11.10;99.90;;;;;;5046111;28;20122;-81
2023/06/07 02:55:17;;;;;;;16.48;4.60;;;11.20;99.90;;;;;;5065491;28;20040;-81
2023/06/07 02:57:43;;;;;;;18.48;4.82;;;11.10;99.90;;;;;;5070592;28;20041;-81
2023/06/07 03:00:12;;;;;;;18.17;5.43;;;11.20;99.90;;;;;;5067774;28;20075;-81
2023/06/07 03:02:39;;;;;;;20.08;4.90;;;11.10;99.90;;;;;;5069903;28;20045;-80
2023/06/07 03:05:08;;;;;;;17.88;5.32;;;11.10;99.90;;;;;;5072522;28;20048;-80
2023/06/07 03:07:35;;;;;;;19.27;4.47;;;11.10;99.90;;;;;;5067119;28;20047;-80
2023/06/07 03:10:01;;;;;;;18.08;4.90;;;11.20;99.90;;;;;;5068805;28;20507;-81
2023/06/07 03:12:27;;;;;;;23.00;4.75;;;11.40;99.90;;;;;;5064275;28;20051;-80
2023/06/07 03:14:53;;;;;;;22.38;5.05;;;11.40;99.90;;;;;;5070249;28;20413;-82
2023/06/07 03:17:18;;;;;;;21.83;5.32;;;11.90;99.90;;;;;;5066364;28;20400;-81
2023/06/07 03:19:44;;;;;;;17.23;5.10;;;11.20;99.90;;;;;;5091199;28;20044;-81
2023/06/07 03:22:10;;;;;;;16.73;5.18;;;11.30;99.90;;;;;;5074466;28;20051;-80
2023/06/07 03:24:36;;;;;;;24.23;5.68;;;11.30;99.90;;;;;;5071325;28;20049;-80
2023/06/07 03:27:08;;;;;;;16.13;5.07;;;11.30;99.90;;;;;;5070211;28;20048;-81
2023/06/07 03:29:34;;;;;;;16.92;5.03;;;11.30;99.90;;;;;;5074772;28;20036;-81
2023/06/07 03:32:01;;;;;;;18.42;5.15;;;12.00;99.90;;;;;;5078339;28;20047;-82
2023/06/07 03:34:29;;;;;;;13.70;4.80;;;11.40;99.90;;;;;;5076175;28;20036;-80
2023/06/07 03:36:56;;;;;;;18.42;5.10;;;11.40;99.90;;;;;;5077841;28;20087;-81
2023/06/07 03:39:21;;;;;;;14.38;4.75;;;11.80;99.90;;;;;;5066593;28;20037;-80
2023/06/07 03:41:47;;;;;;;17.27;4.82;;;11.40;99.90;;;;;;5062884;28;20044;-80
2023/06/07 03:44:13;;;;;;;20.17;4.80;;;11.80;99.90;;;;;;5072134;28;20083;-80
2023/06/07 03:46:40;;;;;;;16.83;4.63;;;12.00;99.90;;;;;;5071761;28;20530;-82
2023/06/07 03:49:05;;;;;;;16.10;3.88;;;11.50;99.90;;;;;;5069754;28;20123;-80
2023/06/07 03:51:32;;;;;;;20.25;4.80;;;11.60;99.90;;;;;;5104508;28;20513;-80
2023/06/07 03:53:58;;;;;;;14.15;3.75;;;11.50;99.90;;;;;;5096945;28;20044;-81
2023/06/07 03:56:25;;;;;;;20.42;4.75;;;11.50;99.90;;;;;;5128165;28;20078;-81
2023/06/07 03:58:54;;;;;;;15.60;4.30;;;11.60;99.90;;;;;;5102176;28;20090;-81
2023/06/07 04:01:21;;;;;;;16.38;4.07;;;11.50;99.90;;;;;;5112450;27;20024;-80
2023/06/07 04:03:47;;;;;;;21.08;4.65;;;11.60;99.90;;;;;;5103314;28;20052;-81
2023/06/07 04:06:14;;;;;;;20.55;5.22;;;11.60;99.90;;;;;;5090723;28;20394;-80
2023/06/07 04:08:39;;;;;;;18.77;4.40;;;11.60;99.90;;;;;;5076588;28;20043;-80
2023/06/07 04:11:06;;;;;;;17.38;4.22;;;11.60;99.90;;;;;;5104469;27;20024;-81
2023/06/07 04:13:31;;;;;;;13.85;4.82;;;11.60;99.90;;;;;;5109734;28;20047;-80
2023/06/07 04:15:57;;;;;;;12.48;4.22;;;11.80;99.90;;;;;;5107323;28;20027;-80
2023/06/07 04:18:22;;;;;;;13.93;4.05;;;11.70;99.90;;;;;;5106915;28;20044;-80
2023/06/07 04:20:48;;;;;;;13.27;3.55;;;11.70;99.90;;;;;;5105673;28;20039;-83
2023/06/07 04:23:14;;;;;;;19.48;3.80;;;11.80;99.90;;;;;;5118778;28;20032;-81
2023/06/07 04:25:40;;;;;;;16.60;4.35;;;11.80;99.90;;;;;;5114987;27;20095;-80
2023/06/07 04:28:06;;;;;;;14.55;4.07;;;11.80;99.90;;;;;;5118365;27;20074;-80
2023/06/07 04:30:34;;;;;;;14.15;4.10;;;11.80;99.90;;;;;;5099099;28;20148;-80
2023/06/07 04:33:09;;;;;;;19.10;4.32;;;11.80;99.90;;;;;;5113130;27;20033;-80
2023/06/07 04:35:36;;;;;;;17.50;4.28;;;11.80;99.90;;;;;;5085803;28;20052;-79
2023/06/07 04:38:03;;;;;;;17.27;4.82;;;11.80;99.90;;;;;;5089144;28;20039;-80
2023/06/07 04:40:29;;;;;;;13.35;3.92;;;11.90;99.90;;;;;;5088036;28;20050;-81
2023/06/07 04:43:04;;;;;;;16.63;4.18;;;11.90;99.90;;;;;;5103309;28;20557;-80
2023/06/07 04:45:31;;;;;;;16.02;4.00;;;11.80;99.90;;;;;;5080045;28;20172;-81
2023/06/07 04:47:58;;;;;;;15.52;4.25;;;12.00;99.90;;;;;;5101207;28;20031;-80
2023/06/07 04:50:24;;;;;;;10.95;3.88;;;11.90;99.90;;;;;;5111609;28;20084;-82
2023/06/07 04:53:00;;;;;;;16.63;3.92;;;12.00;99.90;;;;;;5104988;28;20059;-80
2023/06/07 04:55:28;;;;;;;16.45;4.15;;;12.00;99.90;;;;;;5122220;27;20481;-81
2023/06/07 04:57:58;;;;;;;12.05;3.83;;;11.90;99.90;;;;;;5102448;28;20082;-82
2023/06/07 05:00:25;;;;;;;11.65;3.63;;;12.00;99.90;;;;;;5108719;27;20059;-82
2023/06/07 05:02:54;;;;;;;15.98;3.75;;;12.00;99.90;;;;;;5104005;28;20145;-81
2023/06/07 05:05:23;;;;;;;18.45;4.45;;;11.90;99.90;;;;;;5110293;28;20093;-82
2023/06/07 05:07:49;;;;;;;16.77;4.93;;;12.00;99.90;;;;;;5119972;28;20039;-82
2023/06/07 05:10:18;;;;;;;16.70;4.20;;;12.50;99.90;;;;;;5108617;28;20036;-80
2023/06/07 05:12:45;;;;;;;18.05;3.65;;;12.30;99.90;;;;;;5105807;28;20051;-80
2023/06/07 05:15:11;;;;;;;12.95;4.07;;;12.10;99.90;;;;;;5127834;28;20042;-80
2023/06/07 05:17:38;;;;;;;20.50;4.03;;;12.10;99.90;;;;;;5091949;28;20039;-81
2023/06/07 05:20:10;;;;;;;15.27;3.55;;;12.70;99.90;;;;;;5114366;27;20061;-81
2023/06/07 05:22:37;;;;;;;13.40;3.47;;;12.20;99.90;;;;;;5099408;28;20553;-82
2023/06/07 05:25:03;;;;;;;13.88;4.00;;;12.20;99.90;;;;;;5116479;28;20038;-79
2023/06/07 05:27:29;;;;;;;17.45;4.15;;;12.20;99.90;;;;;;5107514;28;20493;-80
2023/06/07 05:29:55;;;;;;;14.75;4.30;;;12.90;99.90;;;;;;5084496;28;20048;-81
2023/06/07 05:32:20;;;;;;;15.13;3.97;;;12.40;99.90;;;;;;5090508;28;20393;-81
2023/06/07 05:34:48;;;;;;;18.73;4.25;;;12.30;99.90;;;;;;5124986;28;20087;-81
2023/06/07 05:37:14;;;;;;;14.55;4.05;;;12.20;99.90;;;;;;5101152;28;20063;-81
2023/06/07 05:39:41;;;;;;;16.77;3.72;;;12.30;99.90;;;;;;5098250;28;20035;-80
2023/06/07 05:42:07;;;;;;;18.67;4.68;;;12.40;99.90;;;;;;5079365;28;20099;-80
2023/06/07 05:44:34;;;;;;;24.25;4.60;;;12.50;99.90;;;;;;5097564;28;20047;-81
2023/06/07 05:47:00;;;;;;;17.33;4.88;;;12.60;99.90;;;;;;5101426;28;20051;-80
2023/06/07 05:49:25;;;;;;;12.90;4.20;;;12.60;99.90;;;;;;5112209;28;20405;-82
2023/06/07 05:51:52;;;;;;;18.88;4.35;;;13.30;99.90;;;;;;5110618;28;20386;-82
2023/06/07 05:54:18;;;;;;;19.77;5.32;;;12.60;99.90;;;;;;5098398;28;20431;-82
2023/06/07 05:56:44;;;;;;;14.77;4.10;;;12.70;99.90;;;;;;5097775;28;20070;-79
2023/06/07 05:59:10;;;;;;;19.50;4.72;;;13.30;99.90;;;;;;5123829;27;20489;-80
2023/06/07 06:01:36;;;;;;;15.82;3.97;;;12.70;99.90;;;;;;5109479;28;20056;-81
2023/06/07 06:04:04;;;;;;;18.75;4.55;;;12.60;99.90;;;;;;5094351;28;20127;-80
2023/06/07 06:06:30;;;;;;;;;;;12.70;99.90;;;;;;5111486;28;20120;-79
2023/06/07 06:08:55;;;;;;;15.40;4.43;;;12.70;99.90;;;;;;5087556;28;19951;-82
2023/06/07 06:11:21;;;;;;;17.95;4.65;;;12.80;99.90;;;;;;5104094;28;20070;-80
2023/06/07 06:13:48;;;;;;;13.40;3.90;;;12.80;99.90;;;;;;5107882;28;20154;-80
2023/06/07 06:16:14;;;;;;;16.63;4.05;;;13.30;99.90;;;;;;5091484;28;20056;-80
2023/06/07 06:18:42;;;;;;;;;;;13.00;99.90;;;;;;5113108;27;20035;-80
2023/06/07 06:21:08;;;;;;;8.10;3.55;;;13.10;99.90;;;;;;5089714;27;19946;-81
2023/06/07 06:23:35;;;;;;;15.02;4.32;;;13.00;99.90;;;;;;5070596;28;20043;-80
2023/06/07 06:26:01;;;;;;;10.25;3.88;;;13.10;99.90;;;;;;5104223;28;20072;-81
2023/06/07 06:28:28;;;;;;;16.10;3.90;;;13.10;99.90;;;;;;5085153;28;20036;-80
2023/06/07 06:30:57;;;;;;;18.08;4.95;;;13.00;99.90;;;;;;5112835;28;20079;-82
2023/06/07 06:33:22;;;;;;;17.20;4.15;;;13.10;99.90;;;;;;5120254;28;20051;-81
2023/06/07 06:35:48;;;;;;;15.77;4.28;;;13.00;99.90;;;;;;5104727;28;20069;-80
2023/06/07 06:38:14;;;;;;;19.95;4.63;;;13.00;99.90;;;;;;5090686;28;20513;-81
2023/06/07 06:40:39;;;;;;;12.38;4.32;;;13.00;99.90;;;;;;5083333;28;20040;-81
2023/06/07 06:43:07;;;;;;;14.95;3.72;;;13.10;99.90;;;;;;5083821;28;20100;-82
2023/06/07 06:45:33;;;;;;;14.65;4.35;;;13.20;99.90;;;;;;5102138;28;20065;-80
2023/06/07 06:48:01;;;;;;;17.80;4.38;;;14.10;99.90;;;;;;5104055;28;20051;-80
2023/06/07 06:50:29;;;;;;;16.73;4.78;;;13.20;99.90;;;;;;5100062;28;20136;-82
2023/06/07 06:52:54;;;;;;;16.70;4.30;;;13.50;99.90;;;;;;5095402;28;20068;-81
2023/06/07 06:55:20;;;;;;;14.38;4.13;;;13.40;99.90;;;;;;5123353;27;20788;-79
2023/06/07 06:57:46;;;;;;;14.32;4.05;;;13.40;99.90;;;;;;5096996;28;20040;-81
2023/06/07 07:00:15;;;;;;;20.85;5.22;;;13.50;99.90;;;;;;5087407;28;20450;-80
2023/06/07 07:02:40;;;;;;;16.42;4.15;;;13.50;99.90;;;;;;5098072;28;20047;-80
2023/06/07 07:05:07;;;;;;;12.20;3.63;;;13.50;99.90;;;;;;5127935;27;20048;-79
2023/06/07 07:07:33;;;;;;;12.85;3.83;;;13.70;99.90;;;;;;5094003;28;20046;-80
2023/06/07 07:09:59;;;;;;;13.00;4.32;;;13.90;99.90;;;;;;5092450;28;20063;-80
2023/06/07 07:12:25;;;;;;;10.90;3.80;;;14.10;99.90;;;;;;5095621;28;20042;-80
2023/06/07 07:14:51;;;;;;;17.15;4.15;;;14.30;99.90;;;;;;5082927;28;20040;-79
2023/06/07 07:17:17;;;;;;;13.52;3.70;;;14.40;99.90;;;;;;5094569;28;20067;-80
2023/06/07 07:19:43;;;;;;;9.30;3.13;;;14.50;99.90;;;;;;5083065;28;20047;-79
2023/06/07 07:22:08;;;;;;;16.67;4.22;;;14.60;99.90;;;;;;5083467;28;20133;-79
2023/06/07 07:24:34;;;;;;;24.75;4.80;;;14.60;99.90;;;;;;5093047;28;20550;-80
2023/06/07 07:27:00;;;;;;;12.27;4.30;;;14.70;99.90;;;;;;5091132;28;20115;-81
2023/06/07 07:29:28;;;;;;;12.82;3.60;;;14.90;99.90;;;;;;5095947;28;20064;-80
2023/06/07 07:31:54;;;;;;;14.93;3.85;;;14.90;99.90;;;;;;5096067;28;20045;-80
2023/06/07 07:34:20;;;;;;;13.25;4.03;;;14.80;99.90;;;;;;5107117;28;20074;-79
2023/06/07 07:36:48;;;;;;;8.93;3.70;;;14.70;99.90;;;;;;5098501;28;20041;-80
2023/06/07 07:39:17;;;;;;;13.57;4.78;;;14.60;99.90;;;;;;5096382;28;20044;-79
2023/06/07 07:41:43;;;;;;;13.35;4.05;;;14.60;99.90;;;;;;5088533;28;20050;-80
2023/06/07 07:44:09;;;;;;;12.95;3.78;;;14.50;99.90;;;;;;5097495;28;20032;-80
2023/06/07 07:46:37;;;;;;;16.08;4.28;;;14.60;99.90;;;;;;5092113;28;20085;-80
2023/06/07 07:49:03;;;;;;;18.23;4.18;;;14.60;99.90;;;;;;5124287;27;20182;-81
2023/06/07 07:51:29;;;;;;;11.43;3.75;;;14.60;99.90;;;;;;5128573;27;20055;-79
2023/06/07 07:53:56;;;;;;;13.13;3.90;;;14.70;99.90;;;;;;5120820;28;20035;-80
2023/06/07 07:56:22;;;;;;;14.23;4.80;;;14.90;99.90;;;;;;5117873;28;20408;-82
2023/06/07 07:58:49;;;;;;;12.77;3.20;;;15.20;99.90;;;;;;5118170;28;20087;-80
2023/06/07 08:01:16;;;;;;;18.77;4.63;;;15.40;99.90;;;;;;5128147;27;20055;-80
2023/06/07 08:03:42;;;;;;;12.37;4.13;;;15.40;99.90;;;;;;5117808;27;20115;-80
2023/06/07 08:06:08;;;;;;;20.98;4.65;;;15.50;99.90;;;;;;5132010;27;20055;-80
2023/06/07 08:08:34;;;;;;;17.08;3.83;;;15.70;99.90;;;;;;5096248;28;20048;-80
2023/06/07 08:11:00;;;;;;;12.52;4.25;;;15.90;99.90;;;;;;5102329;28;20036;-80
2023/06/07 08:13:26;;;;;;;12.75;3.65;;;15.80;99.90;;;;;;5098872;28;20548;-79
2023/06/07 08:15:52;;;;;;;15.63;3.70;;;15.90;99.90;;;;;;5078902;28;20108;-81
2023/06/07 08:18:18;;;;;;;14.30;4.78;;;16.00;99.90;;;;;;5077419;28;20079;-81
2023/06/07 08:20:44;;;;;;;9.30;3.70;;;15.90;99.90;;;;;;5103352;28;20063;-81
2023/06/07 08:23:10;;;;;;;9.73;3.75;;;16.10;99.90;;;;;;5100910;27;20130;-81
2023/06/07 08:25:36;;;;;;;17.13;3.80;;;16.00;99.90;;;;;;5110044;28;20093;-81
2023/06/07 08:28:02;;;;;;;10.05;3.67;;;16.10;99.90;;;;;;5131632;27;20035;-81
2023/06/07 08:30:28;;;;;;;9.27;3.38;;;16.20;99.90;;;;;;5119461;28;20090;-82
2023/06/07 08:32:54;;;;;;;13.73;3.92;;;16.30;99.90;;;;;;5094648;28;20043;-82
2023/06/07 08:35:20;;;;;;;13.00;3.92;;;16.60;99.90;;;;;;5098480;28;20034;-82
2023/06/07 08:37:45;;;;;;;15.13;4.03;;;16.60;99.90;;;;;;5110703;28;20053;-83
2023/06/07 08:40:12;;;;;;;12.65;3.72;;;16.50;99.90;;;;;;5088183;28;20131;-80
2023/06/07 08:42:39;;;;;;;17.27;4.13;;;16.40;99.90;;;;;;5111948;27;20039;-82
2023/06/07 08:45:05;;;;;;;10.70;3.75;;;16.50;99.90;;;;;;5090122;28;20043;-78
2023/06/07 08:47:34;;;;;;;18.05;4.97;;;16.60;99.90;;;;;;5119878;28;20137;-82
2023/06/07 08:50:01;;;;;;;11.63;4.43;;;16.80;99.90;;;;;;5072504;28;20050;-82
2023/06/07 08:52:30;;;;;;;11.93;4.40;;;16.80;99.90;;;;;;5077325;28;20048;-82
2023/06/07 08:54:58;;;;;;;13.52;3.53;;;16.80;99.90;;;;;;5119558;28;20067;-81
2023/06/07 08:57:29;;;;;;;12.07;4.18;;;16.70;99.90;;;;;;5119470;27;20054;-82
2023/06/07 08:59:56;;;;;;;24.50;5.40;;;16.60;99.90;;;;;;5128482;27;20075;-81
2023/06/07 09:02:24;;;;;;;30.88;5.88;;;16.50;99.90;;;;;;5113091;28;20126;-82
2023/06/07 09:04:51;;;;;;;17.50;4.72;;;16.60;99.90;;;;;;5082379;28;20095;-81
2023/06/07 09:07:25;;;;;;;14.13;4.38;;;16.70;99.90;;;;;;5132531;28;20043;-80
2023/06/07 09:09:51;;;;;;;17.13;3.88;;;16.70;99.90;;;;;;5119213;28;20042;-82
2023/06/07 09:12:17;;;;;;;16.20;4.07;;;16.60;99.90;;;;;;5119166;28;20101;-83
2023/06/07 09:14:42;;;;;;;14.23;4.28;;;17.10;99.90;;;;;;5104755;28;20501;-81
2023/06/07 09:17:08;;;;;;;19.70;4.53;;;17.10;99.90;;;;;;5075881;28;20036;-80
2023/06/07 09:19:35;;;;;;;12.45;3.92;;;17.20;99.90;;;;;;5084259;28;20074;-81
2023/06/07 09:22:05;;;;;;;9.98;3.75;;;17.30;99.90;;;;;;5128479;28;20040;-81
2023/06/07 09:24:32;;;;;;;15.25;5.35;;;17.20;99.90;;;;;;5091563;28;20044;-84
2023/06/07 09:27:00;;;;;;;14.05;4.22;;;17.10;99.90;;;;;;5113296;28;20048;-83
2023/06/07 09:29:28;;;;;;;16.60;5.25;;;17.10;99.90;;;;;;5082360;28;20047;-81
2023/06/07 09:32:14;;;;;;;;;;;17.20;99.90;;;;;;5107876;28;20032;-82
2023/06/07 09:34:41;;;;;;;21.98;4.82;;;17.20;99.90;;;;;;5091106;28;19920;-82
2023/06/07 09:37:06;;;;;;;14.68;4.50;;;17.30;99.90;;;;;;5107748;28;20065;-83
2023/06/07 09:39:32;;;;;;;21.70;4.82;;;17.40;99.90;;;;;;5125932;28;20397;-83
2023/06/07 09:41:58;;;;;;;16.55;4.88;;;17.50;99.90;;;;;;5124878;28;20047;-84
2023/06/07 09:44:26;;;;;;;17.98;4.82;;;17.50;99.90;;;;;;5093052;28;20432;-82
2023/06/07 09:46:52;;;;;;;20.80;5.30;;;17.50;99.90;;;;;;5120373;28;20076;-82
2023/06/07 09:49:34;;;;;;;16.98;6.10;;;17.50;99.90;;;;;;5122820;27;20526;-81
2023/06/07 09:52:11;;;;;;;16.55;4.68;;;17.50;99.90;;;;;;5143824;27;20496;-81
2023/06/07 09:54:38;;;;;;;16.10;5.03;;;17.50;99.90;;;;;;5121437;27;20453;-84
2023/06/07 09:57:09;;;;;;;17.08;5.00;;;17.50;99.90;;;;;;5114591;28;20413;-83
2023/06/07 09:59:37;;;;;;;12.48;4.78;;;17.60;99.90;;;;;;5073453;28;20044;-80
2023/06/07 10:02:26;;;;;;;13.68;4.80;;;17.60;99.90;;;;;;5112603;28;20390;-81
2023/06/07 10:04:53;;;;;;;16.30;4.65;;;17.70;99.90;;;;;;5087041;28;20056;-84
2023/06/07 10:07:21;;;;;;;19.35;4.85;;;17.70;99.90;;;;;;5099323;28;20040;-81
2023/06/07 10:09:52;;;;;;;17.92;4.82;;;17.80;99.90;;;;;;5112242;27;20047;-83
2023/06/07 10:12:21;;;;;;;15.55;4.97;;;18.00;99.90;;;;;;5125540;27;20046;-80
2023/06/07 10:14:47;;;;;;;15.05;4.95;;;18.10;99.90;;;;;;5130001;27;20047;-82
2023/06/07 10:17:15;;;;;;;12.45;4.60;;;18.30;99.90;;;;;;5120749;27;20051;-80
2023/06/07 10:19:46;;;;;;;10.85;4.13;;;18.30;99.90;;;;;;5102116;28;20040;-81
2023/06/07 10:22:18;;;;;;;14.73;4.32;;;18.20;99.90;;;;;;5084912;28;20464;-80
2023/06/07 10:24:54;;;;;;;13.90;4.13;;;18.40;99.90;;;;;;5134276;27;20092;-81
2023/06/07 10:27:23;;;;;;;12.57;4.30;;;18.50;99.90;;;;;;5124677;28;20062;-82
2023/06/07 10:29:51;;;;;;;8.90;4.18;;;18.80;99.90;;;;;;5103876;28;20086;-81
2023/06/07 10:32:25;;;;;;;13.68;4.10;;;18.80;99.90;;;;;;5124308;28;20043;-83
2023/06/07 10:34:54;;;;;;;17.40;4.47;;;18.80;99.90;;;;;;5111544;28;20057;-82
2023/06/07 10:37:20;;;;;;;25.95;5.18;;;18.80;99.90;;;;;;5098869;28;20245;-81
2023/06/07 10:39:46;;;;;;;12.75;4.72;;;19.20;99.90;;;;;;5074468;28;20039;-81
2023/06/07 10:42:13;;;;;;;17.52;4.63;;;19.00;99.90;;;;;;5074810;28;20043;-82
2023/06/07 10:44:39;;;;;;;10.68;4.60;;;19.00;99.90;;;;;;5090115;28;20044;-82
2023/06/07 10:47:25;;;;;;;15.30;5.57;;;19.00;99.90;;;;;;5108027;28;20082;-81
2023/06/07 10:49:51;;;;;;;12.23;5.15;;;19.00;99.90;;;;;;5100454;28;20501;-81
2023/06/07 10:52:17;;;;;;;18.08;5.68;;;19.20;99.90;;;;;;5118203;28;20039;-82
2023/06/07 10:54:45;;;;;;;15.88;4.55;;;19.40;99.90;;;;;;5126279;28;20046;-81
2023/06/07 10:57:11;;;;;;;16.90;5.32;;;19.80;99.90;;;;;;5098589;28;20052;-81
2023/06/07 10:59:38;;;;;;;16.48;4.43;;;19.90;99.90;;;;;;5101905;28;20597;-81
2023/06/07 11:02:23;;;;;;;17.17;4.55;;;19.90;99.90;;;;;;5110647;28;20057;-81
2023/06/07 11:04:49;;;;;;;12.75;4.70;;;19.90;99.90;;;;;;5113253;28;20039;-80
2023/06/07 11:07:31;;;;;;;12.37;4.47;;;19.90;99.90;;;;;;5105110;28;20044;-82
2023/06/07 11:10:03;;;;;;;14.43;4.38;;;20.00;99.90;;;;;;5115074;28;20051;-81
2023/06/07 11:12:40;;;;;;;12.93;4.40;;;19.90;99.90;;;;;;5101974;27;20042;-82
2023/06/07 11:15:22;;;;;;;11.82;4.03;;;20.00;99.90;;;;;;5106854;27;20047;-83
2023/06/07 11:17:53;;;;;;;14.00;4.20;;;20.00;99.90;;;;;;5121644;28;20048;-83
2023/06/07 11:23:21;;;;;;;15.90;4.40;;;19.80;99.90;;;;;;5119089;28;20043;-83
2023/06/07 11:25:48;;;;;;;11.60;4.43;;;19.50;99.90;;;;;;5129732;27;20420;-81
2023/06/07 11:28:15;;;;;;;14.30;4.35;;;19.40;99.90;;;;;;5083290;28;20036;-82
2023/06/07 11:30:42;;;;;;;12.32;3.90;;;19.30;99.90;;;;;;5085616;28;20081;-80
2023/06/07 11:33:13;;;;;;;18.80;5.13;;;19.40;99.90;;;;;;5111928;27;20044;-81
2023/06/07 11:35:40;;;;;;;17.33;4.68;;;19.70;99.90;;;;;;5076354;28;20385;-82
2023/06/07 11:38:06;;;;;;;16.33;4.40;;;19.80;99.90;;;;;;5119352;28;20031;-81
2023/06/07 11:40:31;;;;;;;15.88;4.40;;;19.70;99.90;;;;;;5095424;28;20130;-80
2023/06/07 11:42:57;;;;;;;13.88;4.85;;;19.60;99.90;;;;;;5106789;28;20061;-80
2023/06/07 11:45:23;;;;;;;18.42;4.60;;;19.60;99.90;;;;;;5086993;28;20055;-81
2023/06/07 11:47:49;;;;;;;19.20;4.30;;;19.90;99.90;;;;;;5105065;28;20044;-82
2023/06/07 11:50:15;;;;;;;14.98;3.85;;;19.90;99.90;;;;;;5130966;27;20047;-81
2023/06/07 11:52:41;;;;;;;15.93;4.18;;;20.00;99.90;;;;;;5107425;28;20131;-80
2023/06/07 11:55:10;;;;;;;20.70;4.70;;;20.00;99.90;;;;;;5129662;27;20040;-82
2023/06/07 11:57:38;;;;;;;14.00;4.20;;;19.90;99.90;;;;;;5121039;28;20039;-82
2023/06/07 12:00:15;;;;;;;20.70;5.78;;;19.80;99.90;;;;;;5124377;28;20055;-80
2023/06/07 12:02:43;;;;;;;13.05;4.65;;;19.90;99.90;;;;;;5094175;28;20042;-81
2023/06/07 12:05:09;;;;;;;10.23;3.47;;;19.90;99.90;;;;;;5108338;28;20052;-81
2023/06/07 12:07:36;;;;;;;24.17;4.65;;;20.10;99.90;;;;;;5122496;28;20185;-82
2023/06/07 12:10:06;;;;;;;14.13;3.63;;;20.20;99.90;;;;;;5094246;28;20061;-82
2023/06/07 12:12:32;;;;;;;15.55;4.35;;;20.20;99.90;;;;;;5100869;28;20060;-82
2023/06/07 12:15:02;;;;;;;13.48;4.55;;;20.10;99.90;;;;;;5131002;27;20038;-82
2023/06/07 12:17:34;;;;;;;10.57;4.05;;;20.00;99.90;;;;;;5122645;28;20040;-81
2023/06/07 12:20:14;;;;;;;13.07;4.35;;;20.00;99.90;;;;;;5131035;28;20061;-82
2023/06/07 12:22:40;;;;;;;18.85;4.22;;;20.00;99.90;;;;;;5115202;27;20466;-82
2023/06/07 12:25:09;;;;;;;16.08;4.28;;;19.80;99.90;;;;;;5091343;28;20054;-83
2023/06/07 12:27:36;;;;;;;14.60;4.43;;;19.80;99.90;;;;;;5074942;28;20052;-83
2023/06/07 12:30:06;;;;;;;14.38;4.60;;;19.90;99.90;;;;;;5086368;28;20401;-81
2023/06/07 12:32:32;;;;;;;13.68;4.30;;;19.80;99.90;;;;;;5114283;27;20036;-81
2023/06/07 12:35:05;;;;;;;10.82;4.05;;;20.40;99.90;;;;;;5091626;28;20130;-82
2023/06/07 12:37:35;;;;;;;21.52;5.45;;;19.90;99.90;;;;;;5108866;28;20035;-81
2023/06/07 12:40:04;;;;;;;26.60;4.47;;;19.90;99.90;;;;;;5085035;28;20047;-81
2023/06/07 12:42:30;;;;;;;11.13;4.18;;;19.90;99.90;;;;;;5075647;28;20032;-80
2023/06/07 12:44:56;;;;;;;15.50;4.97;;;19.90;99.90;;;;;;5099220;28;20070;-81